sensor_id;sensor_type;location;lat;lon;timestamp;pressure;altitude;pressure_sealevel;temperature;humidity
34328;BME280;20588;48.840;10.064;2022-12-29T00:02:26;96104.22;;;8.63;nan
34328;BME280;20588;48.840;10.064;2022-12-29T00:04:52;96107.78;;;8.62;nan
34328;BME280;20588;48.840;10.064;2022-12-29T00:07:19;96092.78;;;8.66;nan
34328;BME280;20588;48.840;10.064;2022-12-29T00:09:45;96091.56;;;8.68;nan
34328;BME280;20588;48.840;10.064;2022-12-29T00:12:11;96095.75;;;8.63;nan
34328;BME280;20588;48.840;10.064;2022-12-29T00:14:37;96090.72;;;8.74;nan
34328;BME280;20588;48.840;10.064;2022-12-29T00:17:22;96089.00;;;8.68;nan
34328;BME280;20588;48.840;10.064;2022-12-29T00:19:48;96086.59;;;8.73;nan
34328;BME280;20588;48.840;10.064;2022-12-29T00:22:32;96088.78;;;8.70;nan
34328;BME280;20588;48.840;10.064;2022-12-29T00:25:17;96088.00;;;8.69;nan
34328;BME280;20588;48.840;10.064;2022-12-29T00:28:02;96084.28;;;8.65;nan
34328;BME280;20588;48.840;10.064;2022-12-29T00:30:46;96081.09;;;8.70;nan
34328;BME280;20588;48.840;10.064;2022-12-29T00:33:32;96080.25;;;8.76;nan
34328;BME280;20588;48.840;10.064;2022-12-29T00:36:34;96076.91;;;8.75;nan
34328;BME280;20588;48.840;10.064;2022-12-29T00:39:09;96065.84;;;8.81;nan
34328;BME280;20588;48.840;10.064;2022-12-29T00:41:56;96066.56;;;8.88;nan
34328;BME280;20588;48.840;10.064;2022-12-29T00:44:40;96069.72;;;8.90;nan
34328;BME280;20588;48.840;10.064;2022-12-29T00:47:06;96066.72;;;8.93;nan
34328;BME280;20588;48.840;10.064;2022-12-29T00:49:33;96069.59;;;9.03;nan
34328;BME280;20588;48.840;10.064;2022-12-29T00:52:07;96063.97;;;9.13;nan
34328;BME280;20588;48.840;10.064;2022-12-29T00:54:36;96056.78;;;9.22;nan
34328;BME280;20588;48.840;10.064;2022-12-29T00:57:03;96053.63;;;9.19;nan
34328;BME280;20588;48.840;10.064;2022-12-29T00:59:29;96060.06;;;9.29;nan
34328;BME280;20588;48.840;10.064;2022-12-29T01:01:56;96053.00;;;9.24;nan
34328;BME280;20588;48.840;10.064;2022-12-29T01:04:24;96057.19;;;9.18;nan
34328;BME280;20588;48.840;10.064;2022-12-29T01:06:51;96058.97;;;9.18;nan
34328;BME280;20588;48.840;10.064;2022-12-29T01:09:19;96045.78;;;9.14;nan
34328;BME280;20588;48.840;10.064;2022-12-29T01:12:05;96056.06;;;9.14;nan
34328;BME280;20588;48.840;10.064;2022-12-29T01:14:31;96058.97;;;9.18;nan
34328;BME280;20588;48.840;10.064;2022-12-29T01:16:57;96052.19;;;9.05;nan
34328;BME280;20588;48.840;10.064;2022-12-29T01:19:24;96055.75;;;9.04;nan
34328;BME280;20588;48.840;10.064;2022-12-29T01:21:50;96052.19;;;9.05;nan
34328;BME280;20588;48.840;10.064;2022-12-29T01:24:18;96052.75;;;9.07;nan
34328;BME280;20588;48.840;10.064;2022-12-29T01:26:45;96056.53;;;9.05;nan
34328;BME280;20588;48.840;10.064;2022-12-29T01:29:11;96046.06;;;9.06;nan
34328;BME280;20588;48.840;10.064;2022-12-29T01:31:38;96052.31;;;9.10;nan
34328;BME280;20588;48.840;10.064;2022-12-29T01:34:05;96053.84;;;9.18;nan
34328;BME280;20588;48.840;10.064;2022-12-29T01:36:31;96050.13;;;9.14;nan
34328;BME280;20588;48.840;10.064;2022-12-29T01:38:57;96048.56;;;9.13;nan
34328;BME280;20588;48.840;10.064;2022-12-29T01:41:23;96057.56;;;9.22;nan
34328;BME280;20588;48.840;10.064;2022-12-29T01:43:52;96052.28;;;9.17;nan
34328;BME280;20588;48.840;10.064;2022-12-29T01:51:26;96056.91;;;9.08;nan
34328;BME280;20588;48.840;10.064;2022-12-29T01:53:56;96052.97;;;9.06;nan
34328;BME280;20588;48.840;10.064;2022-12-29T01:56:23;96057.34;;;9.05;nan
34328;BME280;20588;48.840;10.064;2022-12-29T01:58:55;96045.34;;;8.99;nan
34328;BME280;20588;48.840;10.064;2022-12-29T02:01:23;96047.34;;;9.15;nan
34328;BME280;20588;48.840;10.064;2022-12-29T02:03:50;96046.22;;;9.11;nan
34328;BME280;20588;48.840;10.064;2022-12-29T02:06:21;96050.19;;;9.07;nan
34328;BME280;20588;48.840;10.064;2022-12-29T02:08:50;96042.16;;;9.04;nan
34328;BME280;20588;48.840;10.064;2022-12-29T02:11:16;96047.06;;;9.05;nan
34328;BME280;20588;48.840;10.064;2022-12-29T02:13:43;96046.28;;;9.05;nan
34328;BME280;20588;48.840;10.064;2022-12-29T02:16:33;96043.72;;;9.05;nan
34328;BME280;20588;48.840;10.064;2022-12-29T02:22:27;96038.66;;;9.16;nan
34328;BME280;20588;48.840;10.064;2022-12-29T02:28:52;96037.31;;;9.32;nan
34328;BME280;20588;48.840;10.064;2022-12-29T02:31:46;96039.44;;;9.35;nan
34328;BME280;20588;48.840;10.064;2022-12-29T02:42:03;96024.25;;;9.52;nan
34328;BME280;20588;48.840;10.064;2022-12-29T02:44:52;96028.81;;;9.50;nan
34328;BME280;20588;48.840;10.064;2022-12-29T02:47:40;96019.84;;;9.59;nan
34328;BME280;20588;48.840;10.064;2022-12-29T02:50:22;96019.25;;;9.57;nan
34328;BME280;20588;48.840;10.064;2022-12-29T02:52:59;96012.56;;;9.56;nan
34328;BME280;20588;48.840;10.064;2022-12-29T02:55:26;96010.13;;;9.61;nan
34328;BME280;20588;48.840;10.064;2022-12-29T02:58:13;96008.13;;;9.63;nan
34328;BME280;20588;48.840;10.064;2022-12-29T03:01:06;96011.50;;;9.63;nan
34328;BME280;20588;48.840;10.064;2022-12-29T03:04:14;96006.13;;;9.65;nan
34328;BME280;20588;48.840;10.064;2022-12-29T03:12:33;96011.34;;;9.58;nan
34328;BME280;20588;48.840;10.064;2022-12-29T03:15:26;96013.47;;;9.61;nan
34328;BME280;20588;48.840;10.064;2022-12-29T03:18:34;96001.72;;;9.54;nan
34328;BME280;20588;48.840;10.064;2022-12-29T03:21:10;95999.94;;;9.54;nan
34328;BME280;20588;48.840;10.064;2022-12-29T03:23:38;96000.28;;;9.40;nan
34328;BME280;20588;48.840;10.064;2022-12-29T03:26:10;95996.66;;;9.29;nan
34328;BME280;20588;48.840;10.064;2022-12-29T03:28:41;95997.88;;;9.27;nan
34328;BME280;20588;48.840;10.064;2022-12-29T03:31:10;95996.28;;;9.26;nan
34328;BME280;20588;48.840;10.064;2022-12-29T03:33:39;95998.97;;;9.19;nan
34328;BME280;20588;48.840;10.064;2022-12-29T03:36:11;96006.50;;;9.14;nan
34328;BME280;20588;48.840;10.064;2022-12-29T03:38:45;96004.72;;;9.14;nan
34328;BME280;20588;48.840;10.064;2022-12-29T03:41:16;96005.16;;;9.30;nan
34328;BME280;20588;48.840;10.064;2022-12-29T03:43:43;96005.06;;;9.18;nan
34328;BME280;20588;48.840;10.064;2022-12-29T03:46:09;96000.16;;;9.16;nan
34328;BME280;20588;48.840;10.064;2022-12-29T03:48:35;95998.44;;;9.10;nan
34328;BME280;20588;48.840;10.064;2022-12-29T03:51:01;95992.53;;;9.10;nan
34328;BME280;20588;48.840;10.064;2022-12-29T03:53:27;95995.66;;;9.12;nan
34328;BME280;20588;48.840;10.064;2022-12-29T03:55:53;95994.69;;;9.13;nan
34328;BME280;20588;48.840;10.064;2022-12-29T03:58:19;95988.53;;;9.14;nan
34328;BME280;20588;48.840;10.064;2022-12-29T04:00:45;95987.09;;;9.18;nan
34328;BME280;20588;48.840;10.064;2022-12-29T04:03:11;95987.47;;;9.22;nan
34328;BME280;20588;48.840;10.064;2022-12-29T04:05:37;95991.97;;;9.26;nan
34328;BME280;20588;48.840;10.064;2022-12-29T04:08:03;95983.69;;;9.24;nan
34328;BME280;20588;48.840;10.064;2022-12-29T04:10:29;95988.25;;;9.22;nan
34328;BME280;20588;48.840;10.064;2022-12-29T04:12:55;95999.16;;;9.18;nan
34328;BME280;20588;48.840;10.064;2022-12-29T04:15:21;95994.47;;;9.14;nan
34328;BME280;20588;48.840;10.064;2022-12-29T04:17:49;95987.97;;;9.12;nan
34328;BME280;20588;48.840;10.064;2022-12-29T04:20:16;95997.16;;;9.19;nan
34328;BME280;20588;48.840;10.064;2022-12-29T04:23:02;95991.97;;;9.26;nan
34328;BME280;20588;48.840;10.064;2022-12-29T04:25:28;95989.38;;;9.26;nan
34328;BME280;20588;48.840;10.064;2022-12-29T04:27:54;95996.38;;;9.19;nan
34328;BME280;20588;48.840;10.064;2022-12-29T04:30:20;95994.81;;;9.18;nan
34328;BME280;20588;48.840;10.064;2022-12-29T04:32:46;95991.59;;;9.04;nan
34328;BME280;20588;48.840;10.064;2022-12-29T04:35:12;95987.69;;;9.02;nan
34328;BME280;20588;48.840;10.064;2022-12-29T04:37:38;95992.44;;;8.98;nan
34328;BME280;20588;48.840;10.064;2022-12-29T04:40:04;95990.47;;;9.00;nan
34328;BME280;20588;48.840;10.064;2022-12-29T04:42:31;95988.16;;;8.92;nan
34328;BME280;20588;48.840;10.064;2022-12-29T04:44:57;95999.06;;;8.88;nan
34328;BME280;20588;48.840;10.064;2022-12-29T04:47:23;95994.28;;;8.91;nan
34328;BME280;20588;48.840;10.064;2022-12-29T04:49:49;96002.56;;;8.93;nan
34328;BME280;20588;48.840;10.064;2022-12-29T04:52:15;95996.56;;;8.81;nan
34328;BME280;20588;48.840;10.064;2022-12-29T04:54:41;95998.81;;;8.71;nan
34328;BME280;20588;48.840;10.064;2022-12-29T04:57:07;95998.44;;;8.68;nan
34328;BME280;20588;48.840;10.064;2022-12-29T04:59:33;96010.50;;;8.67;nan
34328;BME280;20588;48.840;10.064;2022-12-29T05:01:59;96005.41;;;8.61;nan
34328;BME280;20588;48.840;10.064;2022-12-29T05:04:25;96009.03;;;8.53;nan
34328;BME280;20588;48.840;10.064;2022-12-29T05:06:51;96011.75;;;8.58;nan
34328;BME280;20588;48.840;10.064;2022-12-29T05:09:17;96011.44;;;8.48;nan
34328;BME280;20588;48.840;10.064;2022-12-29T05:11:43;96006.78;;;8.39;nan
34328;BME280;20588;48.840;10.064;2022-12-29T05:14:09;96014.69;;;8.37;nan
34328;BME280;20588;48.840;10.064;2022-12-29T05:16:35;95998.31;;;8.38;nan
34328;BME280;20588;48.840;10.064;2022-12-29T05:19:01;96001.25;;;8.42;nan
34328;BME280;20588;48.840;10.064;2022-12-29T05:21:27;96000.41;;;8.48;nan
34328;BME280;20588;48.840;10.064;2022-12-29T05:23:53;95996.25;;;8.47;nan
34328;BME280;20588;48.840;10.064;2022-12-29T05:26:20;96000.19;;;8.49;nan
34328;BME280;20588;48.840;10.064;2022-12-29T05:28:46;96002.38;;;8.46;nan
34328;BME280;20588;48.840;10.064;2022-12-29T05:31:12;96002.66;;;8.62;nan
34328;BME280;20588;48.840;10.064;2022-12-29T05:33:38;96001.94;;;8.55;nan
34328;BME280;20588;48.840;10.064;2022-12-29T05:36:08;96001.38;;;8.47;nan
34328;BME280;20588;48.840;10.064;2022-12-29T05:38:34;96006.09;;;8.50;nan
34328;BME280;20588;48.840;10.064;2022-12-29T05:41:01;96004.56;;;8.42;nan
34328;BME280;20588;48.840;10.064;2022-12-29T05:43:27;96002.22;;;8.41;nan
34328;BME280;20588;48.840;10.064;2022-12-29T05:45:53;95994.44;;;8.29;nan
34328;BME280;20588;48.840;10.064;2022-12-29T05:48:20;96007.44;;;8.28;nan
34328;BME280;20588;48.840;10.064;2022-12-29T05:50:50;96017.91;;;8.26;nan
34328;BME280;20588;48.840;10.064;2022-12-29T05:53:17;96016.75;;;8.22;nan
34328;BME280;20588;48.840;10.064;2022-12-29T05:55:46;96018.53;;;8.15;nan
34328;BME280;20588;48.840;10.064;2022-12-29T05:58:12;96023.72;;;8.09;nan
34328;BME280;20588;48.840;10.064;2022-12-29T06:00:39;96021.41;;;8.01;nan
34328;BME280;20588;48.840;10.064;2022-12-29T06:03:05;96008.84;;;7.86;nan
34328;BME280;20588;48.840;10.064;2022-12-29T06:05:31;96003.94;;;7.85;nan
34328;BME280;20588;48.840;10.064;2022-12-29T06:07:57;96007.53;;;7.77;nan
34328;BME280;20588;48.840;10.064;2022-12-29T06:10:23;95992.13;;;7.84;nan
34328;BME280;20588;48.840;10.064;2022-12-29T06:12:49;95998.59;;;7.86;nan
34328;BME280;20588;48.840;10.064;2022-12-29T06:15:15;96000.41;;;7.86;nan
34328;BME280;20588;48.840;10.064;2022-12-29T06:17:41;95997.44;;;7.89;nan
34328;BME280;20588;48.840;10.064;2022-12-29T06:20:08;95995.53;;;7.71;nan
34328;BME280;20588;48.840;10.064;2022-12-29T06:22:34;95993.53;;;7.80;nan
34328;BME280;20588;48.840;10.064;2022-12-29T06:25:00;95999.09;;;7.70;nan
34328;BME280;20588;48.840;10.064;2022-12-29T06:27:27;95999.38;;;7.56;nan
34328;BME280;20588;48.840;10.064;2022-12-29T06:29:54;95993.25;;;7.57;nan
34328;BME280;20588;48.840;10.064;2022-12-29T06:32:20;95992.34;;;7.76;nan
34328;BME280;20588;48.840;10.064;2022-12-29T06:34:46;95996.09;;;7.80;nan
34328;BME280;20588;48.840;10.064;2022-12-29T06:37:13;95994.38;;;7.67;nan
34328;BME280;20588;48.840;10.064;2022-12-29T06:39:40;95993.63;;;7.60;nan
34328;BME280;20588;48.840;10.064;2022-12-29T06:42:06;95987.84;;;7.71;nan
34328;BME280;20588;48.840;10.064;2022-12-29T06:44:32;95986.53;;;7.62;nan
34328;BME280;20588;48.840;10.064;2022-12-29T06:46:58;95978.41;;;7.72;nan
34328;BME280;20588;48.840;10.064;2022-12-29T06:49:24;95981.59;;;7.61;nan
34328;BME280;20588;48.840;10.064;2022-12-29T06:51:50;95983.81;;;7.51;nan
34328;BME280;20588;48.840;10.064;2022-12-29T06:54:16;95988.88;;;7.64;nan
34328;BME280;20588;48.840;10.064;2022-12-29T06:56:42;95986.38;;;7.57;nan
34328;BME280;20588;48.840;10.064;2022-12-29T06:59:09;95996.53;;;7.70;nan
34328;BME280;20588;48.840;10.064;2022-12-29T07:01:35;96000.63;;;7.78;nan
34328;BME280;20588;48.840;10.064;2022-12-29T07:04:02;95992.75;;;7.79;nan
34328;BME280;20588;48.840;10.064;2022-12-29T07:06:28;96008.81;;;7.93;nan
34328;BME280;20588;48.840;10.064;2022-12-29T07:08:54;95994.19;;;8.00;nan
34328;BME280;20588;48.840;10.064;2022-12-29T07:11:23;96008.34;;;8.09;nan
34328;BME280;20588;48.840;10.064;2022-12-29T07:13:49;96010.22;;;7.89;nan
34328;BME280;20588;48.840;10.064;2022-12-29T07:16:16;96004.13;;;7.83;nan
34328;BME280;20588;48.840;10.064;2022-12-29T07:18:42;96009.94;;;7.72;nan
34328;BME280;20588;48.840;10.064;2022-12-29T07:21:08;96004.59;;;7.74;nan
34328;BME280;20588;48.840;10.064;2022-12-29T07:23:35;96014.97;;;7.85;nan
34328;BME280;20588;48.840;10.064;2022-12-29T07:26:03;96004.53;;;7.87;nan
34328;BME280;20588;48.840;10.064;2022-12-29T07:28:29;96002.78;;;7.81;nan
34328;BME280;20588;48.840;10.064;2022-12-29T07:30:55;96013.41;;;7.84;nan
34328;BME280;20588;48.840;10.064;2022-12-29T07:33:22;96004.72;;;7.85;nan
34328;BME280;20588;48.840;10.064;2022-12-29T07:35:48;95991.34;;;7.83;nan
34328;BME280;20588;48.840;10.064;2022-12-29T07:38:14;95989.38;;;7.79;nan
34328;BME280;20588;48.840;10.064;2022-12-29T07:40:40;96003.91;;;7.91;nan
34328;BME280;20588;48.840;10.064;2022-12-29T07:43:06;96004.22;;;8.01;nan
34328;BME280;20588;48.840;10.064;2022-12-29T07:45:32;96009.47;;;8.19;nan
34328;BME280;20588;48.840;10.064;2022-12-29T07:47:58;96002.13;;;8.29;nan
34328;BME280;20588;48.840;10.064;2022-12-29T07:50:24;96010.75;;;8.35;nan
34328;BME280;20588;48.840;10.064;2022-12-29T07:52:50;96002.53;;;8.26;nan
34328;BME280;20588;48.840;10.064;2022-12-29T07:55:17;96015.03;;;8.41;nan
34328;BME280;20588;48.840;10.064;2022-12-29T07:57:43;96009.19;;;8.58;nan
34328;BME280;20588;48.840;10.064;2022-12-29T08:00:09;96011.59;;;8.53;nan
34328;BME280;20588;48.840;10.064;2022-12-29T08:02:36;96008.88;;;8.48;nan
34328;BME280;20588;48.840;10.064;2022-12-29T08:05:03;96009.97;;;8.59;nan
34328;BME280;20588;48.840;10.064;2022-12-29T08:07:29;96008.34;;;8.64;nan
34328;BME280;20588;48.840;10.064;2022-12-29T08:09:55;96021.22;;;8.82;nan
34328;BME280;20588;48.840;10.064;2022-12-29T08:12:21;96016.34;;;8.74;nan
34328;BME280;20588;48.840;10.064;2022-12-29T08:14:47;96024.06;;;8.92;nan
34328;BME280;20588;48.840;10.064;2022-12-29T08:17:13;96023.81;;;9.00;nan
34328;BME280;20588;48.840;10.064;2022-12-29T08:19:39;96029.19;;;9.17;nan
34328;BME280;20588;48.840;10.064;2022-12-29T08:22:05;96023.69;;;9.32;nan
34328;BME280;20588;48.840;10.064;2022-12-29T08:24:31;96024.19;;;9.40;nan
34328;BME280;20588;48.840;10.064;2022-12-29T08:26:57;96029.97;;;9.54;nan
34328;BME280;20588;48.840;10.064;2022-12-29T08:29:23;96036.38;;;9.63;nan
34328;BME280;20588;48.840;10.064;2022-12-29T08:31:50;96034.25;;;9.60;nan
34328;BME280;20588;48.840;10.064;2022-12-29T08:34:16;96035.66;;;9.74;nan
34328;BME280;20588;48.840;10.064;2022-12-29T08:36:42;96024.16;;;10.06;nan
34328;BME280;20588;48.840;10.064;2022-12-29T08:39:08;96018.00;;;10.25;nan
34328;BME280;20588;48.840;10.064;2022-12-29T08:41:34;96020.50;;;10.54;nan
34328;BME280;20588;48.840;10.064;2022-12-29T08:44:00;96025.25;;;11.04;nan
34328;BME280;20588;48.840;10.064;2022-12-29T08:46:26;96022.16;;;11.53;nan
34328;BME280;20588;48.840;10.064;2022-12-29T08:48:53;96018.94;;;12.13;nan
34328;BME280;20588;48.840;10.064;2022-12-29T08:51:20;96024.81;;;12.53;nan
34328;BME280;20588;48.840;10.064;2022-12-29T08:53:46;96031.47;;;13.16;nan
34328;BME280;20588;48.840;10.064;2022-12-29T08:56:12;96027.88;;;13.81;nan
34328;BME280;20588;48.840;10.064;2022-12-29T08:58:38;96029.28;;;13.67;nan
34328;BME280;20588;48.840;10.064;2022-12-29T09:01:04;96028.69;;;13.39;nan
34328;BME280;20588;48.840;10.064;2022-12-29T09:03:30;96026.88;;;13.82;nan
34328;BME280;20588;48.840;10.064;2022-12-29T09:05:56;96022.03;;;14.39;nan
34328;BME280;20588;48.840;10.064;2022-12-29T09:08:23;96021.03;;;15.13;nan
34328;BME280;20588;48.840;10.064;2022-12-29T09:10:49;96021.22;;;16.10;nan
34328;BME280;20588;48.840;10.064;2022-12-29T09:13:18;96028.34;;;16.55;nan
34328;BME280;20588;48.840;10.064;2022-12-29T09:15:44;96022.09;;;15.59;nan
34328;BME280;20588;48.840;10.064;2022-12-29T09:18:11;96017.38;;;14.73;nan
34328;BME280;20588;48.840;10.064;2022-12-29T09:20:37;96009.88;;;14.13;nan
34328;BME280;20588;48.840;10.064;2022-12-29T09:23:04;96010.97;;;13.74;nan
34328;BME280;20588;48.840;10.064;2022-12-29T09:25:32;96024.47;;;13.16;nan
34328;BME280;20588;48.840;10.064;2022-12-29T09:27:58;96013.75;;;12.91;nan
34328;BME280;20588;48.840;10.064;2022-12-29T09:30:24;96002.88;;;13.06;nan
34328;BME280;20588;48.840;10.064;2022-12-29T09:32:50;96008.03;;;12.89;nan
34328;BME280;20588;48.840;10.064;2022-12-29T09:35:16;96008.59;;;12.91;nan
34328;BME280;20588;48.840;10.064;2022-12-29T09:37:43;96013.06;;;12.79;nan
34328;BME280;20588;48.840;10.064;2022-12-29T09:45:46;96027.47;;;12.14;nan
34328;BME280;20588;48.840;10.064;2022-12-29T09:48:25;96024.31;;;12.23;nan
34328;BME280;20588;48.840;10.064;2022-12-29T09:50:56;96018.84;;;12.36;nan
34328;BME280;20588;48.840;10.064;2022-12-29T09:54:19;96031.19;;;12.34;nan
34328;BME280;20588;48.840;10.064;2022-12-29T09:56:23;96028.41;;;12.69;nan
34328;BME280;20588;48.840;10.064;2022-12-29T09:59:20;96021.44;;;12.86;nan
34328;BME280;20588;48.840;10.064;2022-12-29T10:01:56;96011.03;;;12.98;nan
34328;BME280;20588;48.840;10.064;2022-12-29T10:04:27;96009.44;;;13.13;nan
34328;BME280;20588;48.840;10.064;2022-12-29T10:16:09;96024.44;;;12.17;nan
34328;BME280;20588;48.840;10.064;2022-12-29T10:21:28;96007.81;;;11.68;nan
34328;BME280;20588;48.840;10.064;2022-12-29T10:23:59;96009.47;;;11.74;nan
34328;BME280;20588;48.840;10.064;2022-12-29T10:26:31;96001.63;;;11.69;nan
34328;BME280;20588;48.840;10.064;2022-12-29T10:29:05;95997.84;;;11.72;nan
34328;BME280;20588;48.840;10.064;2022-12-29T10:31:49;95999.16;;;11.74;nan
34328;BME280;20588;48.840;10.064;2022-12-29T10:36:44;95996.84;;;11.89;nan
34328;BME280;20588;48.840;10.064;2022-12-29T10:39:37;96004.94;;;11.93;nan
34328;BME280;20588;48.840;10.064;2022-12-29T10:42:48;96006.69;;;12.04;nan
34328;BME280;20588;48.840;10.064;2022-12-29T10:45:10;95999.63;;;11.99;nan
34328;BME280;20588;48.840;10.064;2022-12-29T10:47:52;96009.72;;;12.01;nan
34328;BME280;20588;48.840;10.064;2022-12-29T10:50:19;96004.78;;;11.99;nan
34328;BME280;20588;48.840;10.064;2022-12-29T10:52:47;96003.13;;;11.93;nan
34328;BME280;20588;48.840;10.064;2022-12-29T10:55:21;95995.81;;;12.02;nan
34328;BME280;20588;48.840;10.064;2022-12-29T10:57:48;95996.84;;;11.89;nan
34328;BME280;20588;48.840;10.064;2022-12-29T11:08:12;96006.13;;;11.74;nan
34328;BME280;20588;48.840;10.064;2022-12-29T11:10:42;96001.50;;;11.76;nan
34328;BME280;20588;48.840;10.064;2022-12-29T11:13:17;95996.03;;;11.72;nan
34328;BME280;20588;48.840;10.064;2022-12-29T11:15:46;95998.69;;;11.77;nan
34328;BME280;20588;48.840;10.064;2022-12-29T11:18:33;96001.47;;;11.87;nan
34328;BME280;20588;48.840;10.064;2022-12-29T11:21:04;95992.50;;;11.90;nan
34328;BME280;20588;48.840;10.064;2022-12-29T11:23:39;95997.06;;;11.99;nan
34328;BME280;20588;48.840;10.064;2022-12-29T11:26:21;96004.38;;;12.35;nan
34328;BME280;20588;48.840;10.064;2022-12-29T11:31:30;95993.75;;;12.65;nan
34328;BME280;20588;48.840;10.064;2022-12-29T11:33:56;95994.75;;;12.81;nan
34328;BME280;20588;48.840;10.064;2022-12-29T11:36:24;95998.97;;;12.87;nan
34328;BME280;20588;48.840;10.064;2022-12-29T11:38:52;96000.53;;;12.88;nan
34328;BME280;20588;48.840;10.064;2022-12-29T11:41:28;96001.56;;;12.87;nan
34328;BME280;20588;48.840;10.064;2022-12-29T11:43:57;96009.47;;;12.80;nan
34328;BME280;20588;48.840;10.064;2022-12-29T11:46:32;95997.19;;;12.87;nan
34328;BME280;20588;48.840;10.064;2022-12-29T11:48:59;95997.44;;;13.02;nan
34328;BME280;20588;48.840;10.064;2022-12-29T11:51:50;96000.44;;;13.16;nan
34328;BME280;20588;48.840;10.064;2022-12-29T11:54:32;95986.66;;;13.27;nan
34328;BME280;20588;48.840;10.064;2022-12-29T11:57:09;95980.63;;;13.21;nan
34328;BME280;20588;48.840;10.064;2022-12-29T11:59:41;95991.19;;;13.20;nan
34328;BME280;20588;48.840;10.064;2022-12-29T12:02:14;95989.66;;;13.19;nan
34328;BME280;20588;48.840;10.064;2022-12-29T12:04:51;95987.13;;;13.24;nan
34328;BME280;20588;48.840;10.064;2022-12-29T12:07:27;95984.13;;;13.32;nan
34328;BME280;20588;48.840;10.064;2022-12-29T12:10:03;95986.47;;;13.33;nan
34328;BME280;20588;48.840;10.064;2022-12-29T12:15:16;95988.88;;;13.40;nan
34328;BME280;20588;48.840;10.064;2022-12-29T12:18:02;95978.13;;;13.48;nan
34328;BME280;20588;48.840;10.064;2022-12-29T12:23:25;95980.72;;;13.48;nan
34328;BME280;20588;48.840;10.064;2022-12-29T12:28:34;95989.47;;;13.25;nan
34328;BME280;20588;48.840;10.064;2022-12-29T12:31:04;95988.78;;;13.13;nan
34328;BME280;20588;48.840;10.064;2022-12-29T12:33:37;96003.59;;;13.01;nan
34328;BME280;20588;48.840;10.064;2022-12-29T12:36:27;95994.59;;;12.87;nan
34328;BME280;20588;48.840;10.064;2022-12-29T12:39:26;95991.31;;;12.92;nan
34328;BME280;20588;48.840;10.064;2022-12-29T12:42:34;96001.94;;;12.95;nan
34328;BME280;20588;48.840;10.064;2022-12-29T12:47:55;95991.91;;;12.99;nan
34328;BME280;20588;48.840;10.064;2022-12-29T12:50:41;95989.00;;;12.95;nan
34328;BME280;20588;48.840;10.064;2022-12-29T12:53:26;95985.50;;;13.01;nan
34328;BME280;20588;48.840;10.064;2022-12-29T13:01:14;95987.69;;;12.93;nan
34328;BME280;20588;48.840;10.064;2022-12-29T13:07:16;95986.44;;;12.95;nan
34328;BME280;20588;48.840;10.064;2022-12-29T13:12:49;95984.41;;;12.97;nan
34328;BME280;20588;48.840;10.064;2022-12-29T13:23:49;95989.72;;;12.91;nan
34328;BME280;20588;48.840;10.064;2022-12-29T13:26:42;95985.97;;;12.82;nan
34328;BME280;20588;48.840;10.064;2022-12-29T13:29:26;95990.78;;;12.73;nan
34328;BME280;20588;48.840;10.064;2022-12-29T13:37:52;95996.78;;;12.45;nan
34328;BME280;20588;48.840;10.064;2022-12-29T13:40:24;96006.66;;;12.48;nan
34328;BME280;20588;48.840;10.064;2022-12-29T13:42:52;96001.72;;;12.47;nan
34328;BME280;20588;48.840;10.064;2022-12-29T13:45:24;96004.06;;;12.48;nan
34328;BME280;20588;48.840;10.064;2022-12-29T13:47:57;96000.41;;;12.44;nan
34328;BME280;20588;48.840;10.064;2022-12-29T13:50:28;96003.81;;;12.33;nan
34328;BME280;20588;48.840;10.064;2022-12-29T13:53:04;96002.78;;;12.34;nan
34328;BME280;20588;48.840;10.064;2022-12-29T13:55:58;96000.44;;;12.33;nan
34328;BME280;20588;48.840;10.064;2022-12-29T14:04:09;96006.31;;;12.28;nan
34328;BME280;20588;48.840;10.064;2022-12-29T14:06:36;96009.81;;;12.22;nan
34328;BME280;20588;48.840;10.064;2022-12-29T14:12:29;96004.91;;;12.21;nan
34328;BME280;20588;48.840;10.064;2022-12-29T14:17:39;95988.31;;;12.17;nan
34328;BME280;20588;48.840;10.064;2022-12-29T14:20:17;95989.41;;;12.21;nan
34328;BME280;20588;48.840;10.064;2022-12-29T14:23:01;95987.16;;;12.24;nan
34328;BME280;20588;48.840;10.064;2022-12-29T14:25:58;95981.38;;;12.17;nan
34328;BME280;20588;48.840;10.064;2022-12-29T14:28:27;95979.72;;;12.11;nan
34328;BME280;20588;48.840;10.064;2022-12-29T14:30:56;95985.88;;;12.10;nan
34328;BME280;20588;48.840;10.064;2022-12-29T14:33:24;95986.59;;;12.06;nan
34328;BME280;20588;48.840;10.064;2022-12-29T14:35:53;95986.13;;;12.09;nan
34328;BME280;20588;48.840;10.064;2022-12-29T14:38:22;95994.50;;;12.16;nan
34328;BME280;20588;48.840;10.064;2022-12-29T14:40:49;95990.22;;;12.21;nan
34328;BME280;20588;48.840;10.064;2022-12-29T14:43:25;95982.22;;;12.23;nan
34328;BME280;20588;48.840;10.064;2022-12-29T14:45:57;95982.31;;;12.28;nan
34328;BME280;20588;48.840;10.064;2022-12-29T14:48:45;95998.81;;;12.27;nan
34328;BME280;20588;48.840;10.064;2022-12-29T14:51:20;95996.31;;;12.32;nan
34328;BME280;20588;48.840;10.064;2022-12-29T14:53:49;95998.34;;;12.30;nan
34328;BME280;20588;48.840;10.064;2022-12-29T14:56:18;95996.00;;;12.28;nan
34328;BME280;20588;48.840;10.064;2022-12-29T15:04:21;95997.09;;;12.16;nan
34328;BME280;20588;48.840;10.064;2022-12-29T15:06:49;95995.19;;;12.11;nan
34328;BME280;20588;48.840;10.064;2022-12-29T15:09:39;95995.97;;;12.12;nan
34328;BME280;20588;48.840;10.064;2022-12-29T15:12:37;95995.34;;;12.05;nan
34328;BME280;20588;48.840;10.064;2022-12-29T15:17:47;95987.44;;;11.95;nan
34328;BME280;20588;48.840;10.064;2022-12-29T15:23:03;95986.25;;;11.86;nan
34328;BME280;20588;48.840;10.064;2022-12-29T15:25:34;95985.81;;;11.77;nan
34328;BME280;20588;48.840;10.064;2022-12-29T15:28:06;95993.38;;;11.67;nan
34328;BME280;20588;48.840;10.064;2022-12-29T15:30:32;95995.84;;;11.62;nan
34328;BME280;20588;48.840;10.064;2022-12-29T15:32:58;95992.59;;;11.55;nan
34328;BME280;20588;48.840;10.064;2022-12-29T15:35:32;95998.09;;;11.47;nan